メインページ
METAR-TAF:

METAR-TAF

空港 :

テルアビブ / ベン・グリオン, イスラエル

ベン・グリオン国際空港

緯度: 32-00N, 経度: 034-54E, 海抜: 40m

現時点の気象観測

当レポートは16分前の04:50(UTC)に作成
南東の風 4kt
気温 21°C
湿度 83%
気圧 1016 hPa
視程10km以上
高度2500ftの雲はほとんどない

METAR: LLBG 210450Z 13004KT 9999 FEW025 21/18 Q1016 NOSIG

時間: 08:06 (05:06 UTC)

予報

当レポートは6時間3分前の23:03(UTC)に作成
予報は21日の 00時(UTC)から 21日の 24時(UTC)まで有効
変向風 3kt
視程10km以上
高度2300ftの雲は散在している
21日の 00時(UTC)から 21日の 06時(UTC)まで一時的に
高度2000ftの千切れ雲あり
21日の 07時(UTC)から 21日の 09時(UTC)まで徐々に
西/北西の風 10kt
高度2500ftの雲は散在している
21日の 16時(UTC)から 21日の 18時(UTC)まで徐々に
変向風 4kt

TAF: LLBG 202303Z 2100/2124 VRB03KT 9999 SCT023 TEMPO 2100/2106 BKN020 BECMG 2107/2109 30010KT SCT025 BECMG 2116/2118 VRB04KT TX27/2112Z TN19/2103Z

4,000以上の空港の気象観測と天気予報(METAR報とTAF報)

利用可能な観測所は地図上に黄色い丸と赤い丸で示す。

丸の上にカーソルを重ねると観測所名を参照できる。

次にクリックすると気象観測と天気予報を参照できる。

マップの切り替え:黒色「×」印の緑ボタンをクリックして拡大、「-」印の緑ボタンをクリックして縮小、緑色の三角印をクリックして隣りの地図に切り替え


METAR-TAF: